Time;durP1;ratioP1;P1;durP2;ratioP2;P2;SDS_P1;SDS_P2;PMS_P1;PMS_P2;Temp;Humidity;BMP_temperature;BMP_pressure;BME280_temperature;BME280_humidity;BME280_pressure;Samples;Min_cycle;Max_cycle;Signal;HPM_P1;HPM_P2
2023/03/08 00:01:22;;;;;;;1.20;0.90;;;5.70;99.90;;;;;;5010247;28;20553;-50
2023/03/08 00:03:54;;;;;;;1.40;1.00;;;5.80;99.90;;;;;;4993110;28;20609;-49
2023/03/08 00:06:24;;;;;;;1.35;1.10;;;5.70;99.90;;;;;;5005840;28;20189;-49
2023/03/08 00:08:56;;;;;;;1.73;1.52;;;5.70;99.90;;;;;;4991307;28;20563;-50
2023/03/08 00:11:26;;;;;;;1.98;1.17;;;5.80;99.90;;;;;;4987750;28;20228;-48
2023/03/08 00:13:55;;;;;;;1.23;1.05;;;5.70;99.90;;;;;;4988796;28;20296;-51
2023/03/08 00:16:23;;;;;;;1.98;1.17;;;5.70;99.90;;;;;;4991742;28;20206;-48
2023/03/08 00:18:52;;;;;;;1.60;1.13;;;5.70;99.90;;;;;;5008257;28;20202;-50
2023/03/08 00:21:21;;;;;;;1.15;0.88;;;5.70;99.90;;;;;;5006034;28;20220;-50
2023/03/08 00:23:52;;;;;;;1.50;1.20;;;5.70;99.90;;;;;;4989787;28;20202;-51
2023/03/08 00:26:22;;;;;;;1.50;1.10;;;5.70;99.90;;;;;;5007428;28;20200;-50
2023/03/08 00:28:51;;;;;;;2.42;1.05;;;5.70;99.90;;;;;;4991760;28;20580;-51
2023/03/08 00:31:20;;;;;;;1.38;0.90;;;5.70;99.90;;;;;;5005320;28;20204;-49
2023/03/08 00:33:52;;;;;;;1.27;0.95;;;5.70;99.90;;;;;;4989723;28;20200;-48
2023/03/08 00:36:21;;;;;;;1.30;1.00;;;5.70;99.90;;;;;;5005339;28;20216;-48
2023/03/08 00:38:51;;;;;;;1.65;0.95;;;5.70;99.90;;;;;;4991207;28;20195;-49
2023/03/08 00:41:21;;;;;;;1.60;1.40;;;5.70;99.90;;;;;;4987695;28;20247;-48
2023/03/08 00:43:50;;;;;;;1.90;1.27;;;5.70;99.90;;;;;;4991643;28;20755;-50
2023/03/08 00:46:19;;;;;;;1.35;0.90;;;5.70;99.90;;;;;;5005580;28;20208;-49
2023/03/08 00:48:48;;;;;;;1.48;0.88;;;5.70;99.90;;;;;;5006688;28;20199;-49
2023/03/08 00:51:18;;;;;;;1.58;1.25;;;5.70;99.90;;;;;;5006449;28;20662;-49
2023/03/08 00:53:47;;;;;;;1.63;1.20;;;5.70;99.90;;;;;;4990425;28;20595;-48
2023/03/08 00:56:16;;;;;;;1.80;1.52;;;5.70;99.90;;;;;;4989194;28;20227;-49
2023/03/08 00:58:46;;;;;;;2.03;1.00;;;5.70;99.90;;;;;;4991023;28;20206;-48
2023/03/08 01:01:17;;;;;;;1.40;1.10;;;5.70;99.90;;;;;;5002730;28;20202;-51
2023/03/08 01:03:49;;;;;;;2.50;1.15;;;5.70;99.90;;;;;;4992073;28;20566;-48
2023/03/08 01:06:17;;;;;;;1.27;1.00;;;5.70;99.90;;;;;;5008766;28;20562;-48
2023/03/08 01:08:46;;;;;;;1.17;0.93;;;5.70;99.90;;;;;;4990026;28;20286;-50
2023/03/08 01:11:19;;;;;;;1.30;1.08;;;5.70;99.90;;;;;;4990343;28;20199;-51
2023/03/08 01:13:50;;;;;;;1.25;1.08;;;5.70;99.90;;;;;;4991546;28;20202;-52
2023/03/08 01:16:20;;;;;;;2.20;1.10;;;5.70;99.90;;;;;;5001105;28;20204;-50
2023/03/08 01:18:50;;;;;;;1.60;1.20;;;5.70;99.90;;;;;;4990738;28;20554;-48
2023/03/08 01:21:21;;;;;;;1.45;1.15;;;5.70;99.90;;;;;;4990498;28;20224;-51
2023/03/08 01:23:49;;;;;;;1.55;0.80;;;5.70;99.90;;;;;;4990254;28;20733;-49
2023/03/08 01:26:20;;;;;;;1.90;1.50;;;5.70;99.90;;;;;;4990653;28;20188;-50
2023/03/08 01:28:51;;;;;;;1.75;1.40;;;5.60;99.90;;;;;;4990619;28;20225;-50
2023/03/08 01:31:22;;;;;;;4.18;1.10;;;5.60;99.90;;;;;;4987272;28;20222;-49
2023/03/08 01:33:53;;;;;;;2.20;1.50;;;5.60;99.90;;;;;;4991685;28;20192;-50
2023/03/08 01:36:23;;;;;;;1.98;1.23;;;5.60;99.90;;;;;;4975530;28;20219;-50
2023/03/08 01:38:52;;;;;;;1.60;1.40;;;5.60;99.90;;;;;;5003469;28;20210;-50
2023/03/08 01:41:23;;;;;;;1.30;0.90;;;5.60;99.90;;;;;;5007188;28;20219;-48
2023/03/08 01:43:54;;;;;;;1.40;1.00;;;5.60;99.90;;;;;;5007398;28;20189;-50
2023/03/08 01:46:26;;;;;;;1.20;0.90;;;5.60;99.90;;;;;;5007162;28;20198;-50
2023/03/08 01:49:30;;;;;;;1.02;0.85;;;5.60;99.90;;;;;;4985407;28;20196;-52
2023/03/08 01:52:03;;;;;;;1.30;0.95;;;5.60;99.90;;;;;;4989512;28;20264;-51
2023/03/08 01:54:35;;;;;;;2.85;1.65;;;5.60;99.90;;;;;;4990520;28;20633;-50
2023/03/08 01:57:08;;;;;;;2.00;1.10;;;5.60;99.90;;;;;;5003548;28;20228;-48
2023/03/08 01:59:39;;;;;;;1.33;1.10;;;5.60;99.90;;;;;;4990120;28;20192;-49
2023/03/08 02:02:09;;;;;;;3.45;1.30;;;5.60;99.90;;;;;;4984634;28;20224;-49
2023/03/08 02:04:39;;;;;;;1.42;1.13;;;5.60;99.90;;;;;;5003649;28;20209;-49
2023/03/08 02:07:11;;;;;;;3.33;1.20;;;5.60;99.90;;;;;;5005409;28;20196;-50
2023/03/08 02:09:40;;;;;;;1.20;1.00;;;5.60;99.90;;;;;;5001028;28;20731;-50
2023/03/08 02:12:12;;;;;;;1.85;1.70;;;5.60;99.90;;;;;;4986788;28;20283;-51
2023/03/08 02:14:44;;;;;;;1.55;1.05;;;5.60;99.90;;;;;;4998379;28;20198;-49
2023/03/08 02:17:12;;;;;;;2.35;1.42;;;5.60;99.90;;;;;;4989811;28;20213;-48
2023/03/08 02:19:48;;;;;;;2.08;1.52;;;5.60;99.90;;;;;;4999830;28;20197;-49
2023/03/08 02:22:17;;;;;;;1.45;1.08;;;5.60;99.90;;;;;;5005048;28;20233;-49
2023/03/08 02:24:48;;;;;;;1.52;1.10;;;5.60;99.90;;;;;;4989729;28;20192;-51
2023/03/08 02:27:20;;;;;;;1.65;1.10;;;5.60;99.90;;;;;;5002394;28;20231;-51
2023/03/08 02:29:48;;;;;;;2.25;1.10;;;5.60;99.90;;;;;;4986526;28;20197;-48
2023/03/08 02:32:17;;;;;;;2.70;1.40;;;5.60;99.90;;;;;;5001254;28;20234;-49
2023/03/08 02:34:46;;;;;;;1.27;1.00;;;5.60;99.90;;;;;;4987943;28;20208;-47
2023/03/08 02:37:14;;;;;;;3.95;1.30;;;5.60;99.90;;;;;;4987746;28;20208;-49
2023/03/08 02:39:43;;;;;;;1.25;0.90;;;5.60;99.90;;;;;;4988685;28;20195;-50
2023/03/08 02:42:12;;;;;;;1.13;0.88;;;5.60;99.90;;;;;;5001284;28;20234;-51
2023/03/08 02:44:43;;;;;;;1.63;1.08;;;5.60;99.90;;;;;;5004644;28;20197;-51
2023/03/08 02:47:12;;;;;;;1.40;1.05;;;5.60;99.90;;;;;;4987617;28;20189;-47
2023/03/08 02:49:41;;;;;;;2.30;1.33;;;5.50;99.90;;;;;;4999907;28;20232;-48
2023/03/08 02:52:10;;;;;;;1.20;1.10;;;5.50;99.90;;;;;;5003221;28;20285;-50
2023/03/08 02:54:39;;;;;;;1.80;1.00;;;5.60;99.90;;;;;;4981939;28;20205;-50
2023/03/08 02:57:07;;;;;;;1.30;1.20;;;5.50;99.90;;;;;;5001787;28;20255;-48
2023/03/08 02:59:39;;;;;;;1.60;1.25;;;5.60;99.90;;;;;;4999028;28;20193;-49
2023/03/08 03:02:08;;;;;;;1.90;1.40;;;5.60;99.90;;;;;;4997860;28;20230;-50
2023/03/08 03:04:36;;;;;;;1.10;1.00;;;5.50;99.90;;;;;;5002700;28;20597;-48
2023/03/08 03:07:05;;;;;;;1.60;1.20;;;5.50;99.90;;;;;;4987967;28;20223;-50
2023/03/08 03:09:35;;;;;;;2.30;1.30;;;5.50;99.90;;;;;;5002510;28;20708;-49
2023/03/08 03:12:04;;;;;;;1.30;1.05;;;5.50;99.90;;;;;;4990215;28;20277;-50
2023/03/08 03:14:36;;;;;;;1.40;1.10;;;5.50;99.90;;;;;;4993251;28;20203;-51
2023/03/08 03:17:06;;;;;;;1.00;0.80;;;5.50;99.90;;;;;;4994937;28;20823;-49
2023/03/08 03:19:35;;;;;;;1.80;1.33;;;5.50;99.90;;;;;;5010321;28;20189;-50
2023/03/08 03:22:04;;;;;;;1.92;1.17;;;5.50;99.90;;;;;;4990658;28;20582;-49
2023/03/08 03:24:33;;;;;;;1.63;1.35;;;5.50;99.90;;;;;;4993463;28;20204;-50
2023/03/08 03:27:06;;;;;;;2.22;1.00;;;5.50;99.90;;;;;;5003791;28;20231;-49
2023/03/08 03:29:38;;;;;;;1.98;1.02;;;5.50;99.90;;;;;;4988892;28;20252;-48
2023/03/08 03:32:17;;;;;;;2.00;1.27;;;5.50;99.90;;;;;;5005697;28;20224;-49
2023/03/08 03:34:46;;;;;;;2.30;1.55;;;5.50;99.90;;;;;;4991353;28;20280;-51
2023/03/08 03:37:17;;;;;;;2.25;1.30;;;5.50;99.90;;;;;;5004131;28;20242;-50
2023/03/08 03:39:46;;;;;;;3.35;1.50;;;5.50;99.90;;;;;;5009749;28;20537;-49
2023/03/08 03:42:17;;;;;;;1.40;1.27;;;5.50;99.90;;;;;;5006111;28;20307;-50
2023/03/08 03:44:53;;;;;;;1.75;1.23;;;5.50;99.90;;;;;;4989102;28;20276;-48
2023/03/08 03:47:24;;;;;;;1.85;1.50;;;5.50;99.90;;;;;;5006298;28;20268;-51
2023/03/08 03:49:57;;;;;;;1.40;1.00;;;5.50;99.90;;;;;;4990432;28;20674;-49
2023/03/08 03:52:29;;;;;;;1.88;0.88;;;5.50;99.90;;;;;;4991729;28;20236;-47
2023/03/08 03:55:03;;;;;;;1.50;1.10;;;5.50;99.90;;;;;;4988908;28;20761;-48
2023/03/08 03:57:32;;;;;;;2.67;2.22;;;5.50;99.90;;;;;;5007644;28;20220;-48
2023/03/08 04:00:01;;;;;;;2.20;1.77;;;5.50;99.90;;;;;;4982570;28;20674;-50
2023/03/08 04:02:31;;;;;;;2.03;1.63;;;5.40;99.90;;;;;;5007956;28;20232;-49
2023/03/08 04:05:00;;;;;;;1.70;1.40;;;5.40;99.90;;;;;;5015193;28;20202;-52
2023/03/08 04:07:33;;;;;;;1.92;1.23;;;5.50;99.90;;;;;;5000948;28;20296;-51
2023/03/08 04:10:02;;;;;;;2.25;1.50;;;5.50;99.90;;;;;;4992645;28;20250;-50
2023/03/08 04:12:32;;;;;;;2.22;1.67;;;5.40;99.90;;;;;;5003448;28;20651;-49
2023/03/08 04:15:01;;;;;;;2.10;1.80;;;5.50;99.90;;;;;;4982322;28;20200;-48
2023/03/08 04:17:33;;;;;;;2.45;1.20;;;5.40;99.90;;;;;;4991344;28;20700;-50
2023/03/08 04:20:03;;;;;;;1.60;1.23;;;5.40;99.90;;;;;;5004858;28;20203;-49
2023/03/08 04:22:35;;;;;;;2.38;1.50;;;5.40;99.90;;;;;;4990885;28;20224;-50
2023/03/08 04:25:12;;;;;;;1.40;1.10;;;5.40;99.90;;;;;;4988636;28;20204;-48
2023/03/08 04:27:54;;;;;;;1.98;1.30;;;5.40;99.90;;;;;;4989554;28;20596;-48
2023/03/08 04:30:22;;;;;;;2.05;1.27;;;5.40;99.90;;;;;;5004707;28;20200;-50
2023/03/08 04:32:53;;;;;;;2.63;1.20;;;5.40;99.90;;;;;;5005926;28;20224;-48
2023/03/08 04:35:26;;;;;;;2.03;1.35;;;5.40;99.90;;;;;;4989889;28;20203;-50
2023/03/08 04:37:55;;;;;;;3.17;1.70;;;5.40;99.90;;;;;;4991022;28;20234;-50
2023/03/08 04:40:26;;;;;;;1.77;1.45;;;5.40;99.90;;;;;;4992207;28;20288;-50
2023/03/08 04:42:58;;;;;;;1.70;1.38;;;5.40;99.90;;;;;;4991934;28;20700;-50
2023/03/08 04:45:36;;;;;;;2.67;1.70;;;5.40;99.90;;;;;;4992258;28;20639;-47
2023/03/08 04:48:11;;;;;;;1.70;1.25;;;5.40;99.90;;;;;;5000695;28;20576;-48
2023/03/08 04:50:40;;;;;;;1.90;1.50;;;5.40;99.90;;;;;;4989516;28;20223;-51
2023/03/08 04:53:10;;;;;;;2.22;1.65;;;5.40;99.90;;;;;;5000849;28;20230;-49
2023/03/08 04:55:39;;;;;;;2.38;1.20;;;5.40;99.90;;;;;;4987558;28;20284;-49
2023/03/08 04:58:08;;;;;;;1.95;1.23;;;5.40;99.90;;;;;;4991684;28;20275;-49
2023/03/08 05:00:37;;;;;;;2.00;1.70;;;5.40;99.90;;;;;;4990815;28;20437;-47
2023/03/08 05:03:07;;;;;;;1.70;1.30;;;5.40;99.90;;;;;;4990498;28;20328;-49
2023/03/08 05:05:37;;;;;;;1.52;1.40;;;5.40;99.90;;;;;;5001501;28;20256;-49
2023/03/08 05:08:06;;;;;;;1.83;1.58;;;5.40;99.90;;;;;;4989990;28;20217;-50
2023/03/08 05:10:37;;;;;;;1.70;1.35;;;5.40;99.90;;;;;;4990052;28;20202;-48
2023/03/08 05:13:05;;;;;;;2.30;1.63;;;5.30;99.90;;;;;;5003728;28;20503;-49
2023/03/08 05:15:34;;;;;;;2.67;1.25;;;5.30;99.90;;;;;;5001336;28;20204;-50
2023/03/08 05:18:03;;;;;;;2.65;2.42;;;5.30;99.90;;;;;;5003774;28;20661;-48
2023/03/08 05:20:32;;;;;;;1.60;1.30;;;5.30;99.90;;;;;;5004355;28;20724;-48
2023/03/08 05:23:02;;;;;;;2.20;1.38;;;5.30;99.90;;;;;;4987698;28;20729;-51
2023/03/08 05:25:42;;;;;;;1.75;1.27;;;5.30;99.90;;;;;;4991756;28;20228;-50
2023/03/08 05:28:14;;;;;;;1.73;1.25;;;5.30;99.90;;;;;;4999755;28;20270;-51
2023/03/08 05:30:46;;;;;;;2.10;1.25;;;5.30;99.90;;;;;;4990332;28;20685;-49
2023/03/08 05:33:15;;;;;;;1.88;1.10;;;5.30;99.90;;;;;;4987850;28;20228;-50
2023/03/08 05:35:44;;;;;;;1.73;1.42;;;5.30;99.90;;;;;;4990990;28;20572;-49
2023/03/08 05:38:14;;;;;;;1.85;1.15;;;5.30;99.90;;;;;;4984858;28;20220;-50
2023/03/08 05:40:43;;;;;;;1.90;1.35;;;5.30;99.90;;;;;;4996452;28;20632;-48
2023/03/08 05:43:18;;;;;;;1.65;1.02;;;5.30;99.90;;;;;;4997489;28;20233;-50
2023/03/08 05:45:56;;;;;;;2.03;1.75;;;5.30;99.90;;;;;;4989729;28;20233;-49
2023/03/08 05:48:26;;;;;;;1.23;1.00;;;5.30;99.90;;;;;;5002215;28;20352;-49
2023/03/08 05:50:55;;;;;;;2.28;1.50;;;5.30;99.90;;;;;;4999281;28;20227;-48
2023/03/08 05:53:26;;;;;;;2.20;1.33;;;5.30;99.90;;;;;;5005317;28;20279;-47
2023/03/08 05:55:55;;;;;;;2.08;1.48;;;5.30;99.90;;;;;;4989780;28;20308;-49
2023/03/08 05:58:25;;;;;;;2.28;1.23;;;5.30;99.90;;;;;;4989767;28;20601;-48
2023/03/08 06:00:54;;;;;;;1.75;1.05;;;5.30;99.90;;;;;;4990898;28;20250;-48
2023/03/08 06:03:23;;;;;;;1.90;1.35;;;5.30;99.90;;;;;;5008161;28;20948;-49
2023/03/08 06:05:52;;;;;;;2.70;1.50;;;5.30;99.90;;;;;;4988362;28;20197;-47
2023/03/08 06:08:21;;;;;;;2.15;1.40;;;5.30;99.90;;;;;;5006820;28;20223;-48
2023/03/08 06:10:52;;;;;;;1.98;1.80;;;5.30;99.90;;;;;;5006411;28;20200;-51
2023/03/08 06:13:22;;;;;;;2.20;1.80;;;5.30;99.90;;;;;;5004524;28;20223;-49
2023/03/08 06:15:54;;;;;;;1.98;1.50;;;5.30;99.90;;;;;;4990208;28;20645;-48
2023/03/08 06:18:24;;;;;;;1.45;1.35;;;5.30;99.90;;;;;;5006772;28;20218;-49
2023/03/08 06:21:01;;;;;;;1.70;1.50;;;5.30;99.90;;;;;;5008618;28;20242;-48
2023/03/08 06:23:34;;;;;;;2.00;1.45;;;5.30;99.90;;;;;;4989004;28;20220;-48
2023/03/08 06:26:07;;;;;;;1.83;1.27;;;5.30;99.90;;;;;;4991695;28;20199;-50
2023/03/08 06:28:39;;;;;;;1.85;1.52;;;5.30;99.90;;;;;;5004307;28;20219;-47
2023/03/08 06:31:13;;;;;;;1.50;1.10;;;5.30;99.90;;;;;;4989882;28;20291;-48
2023/03/08 06:33:42;;;;;;;1.98;1.27;;;5.30;99.90;;;;;;5000477;28;20301;-48
2023/03/08 06:36:17;;;;;;;1.70;1.25;;;5.30;99.90;;;;;;4995162;28;20732;-49
2023/03/08 06:38:48;;;;;;;1.35;0.90;;;5.30;99.90;;;;;;4990897;28;20207;-49
2023/03/08 06:41:19;;;;;;;1.63;1.38;;;5.30;99.90;;;;;;5004136;28;20203;-50
2023/03/08 06:43:53;;;;;;;2.05;1.50;;;5.30;99.90;;;;;;5005675;28;20195;-48
2023/03/08 06:46:22;;;;;;;2.38;1.30;;;5.30;99.90;;;;;;4993241;28;20657;-48
2023/03/08 06:48:52;;;;;;;1.40;1.20;;;5.30;99.90;;;;;;5007721;28;20534;-51
2023/03/08 06:51:21;;;;;;;1.60;1.20;;;5.30;99.90;;;;;;4993935;28;20218;-48
2023/03/08 06:53:51;;;;;;;1.23;0.82;;;5.30;99.90;;;;;;4993919;28;20208;-50
2023/03/08 06:56:27;;;;;;;2.05;1.38;;;5.30;99.90;;;;;;5010217;28;20745;-48
2023/03/08 06:58:56;;;;;;;2.17;1.38;;;5.30;99.90;;;;;;4993724;28;20204;-49
2023/03/08 07:01:25;;;;;;;3.80;1.30;;;5.30;99.90;;;;;;5010911;28;20229;-49
2023/03/08 07:03:54;;;;;;;2.00;1.73;;;5.20;99.90;;;;;;5011449;28;20271;-47
2023/03/08 07:06:23;;;;;;;1.35;1.00;;;5.30;99.90;;;;;;4994260;28;20549;-47
2023/03/08 07:08:51;;;;;;;1.42;0.98;;;5.30;99.90;;;;;;4990802;28;20193;-49
2023/03/08 07:11:20;;;;;;;1.88;1.30;;;5.30;99.90;;;;;;4994827;28;20620;-49
2023/03/08 07:13:50;;;;;;;1.25;0.80;;;5.30;99.90;;;;;;4997402;28;20696;-50
2023/03/08 07:16:19;;;;;;;1.90;1.27;;;5.30;99.90;;;;;;5006152;28;20656;-47
2023/03/08 07:18:47;;;;;;;1.20;1.00;;;5.20;99.90;;;;;;4994589;28;20197;-47
2023/03/08 07:21:16;;;;;;;1.55;1.33;;;5.20;99.90;;;;;;4990896;28;20294;-48
2023/03/08 07:23:45;;;;;;;1.90;1.40;;;5.30;99.90;;;;;;5011453;28;20589;-47
2023/03/08 07:26:13;;;;;;;2.20;1.40;;;5.30;99.90;;;;;;4994662;28;20205;-50
2023/03/08 07:28:42;;;;;;;1.25;0.90;;;5.30;99.90;;;;;;4989009;28;20219;-49
2023/03/08 07:31:12;;;;;;;1.30;1.20;;;5.30;99.90;;;;;;5007811;28;20287;-47
2023/03/08 07:33:41;;;;;;;1.38;0.95;;;5.30;99.90;;;;;;4987771;28;20234;-47
2023/03/08 07:36:09;;;;;;;1.63;1.33;;;5.20;99.90;;;;;;4989854;28;20674;-47
2023/03/08 07:38:38;;;;;;;1.70;1.05;;;5.20;99.90;;;;;;5004294;28;20564;-48
2023/03/08 07:41:07;;;;;;;1.70;1.17;;;5.30;99.90;;;;;;4989290;28;20232;-48
2023/03/08 07:43:36;;;;;;;1.30;1.00;;;5.30;99.90;;;;;;5006543;28;20229;-48
2023/03/08 07:46:10;;;;;;;0.93;0.65;;;5.20;99.90;;;;;;5008863;28;20303;-49
2023/03/08 07:48:40;;;;;;;3.38;1.20;;;5.30;99.90;;;;;;5004720;28;20228;-49
2023/03/08 07:51:09;;;;;;;1.67;1.00;;;5.30;99.90;;;;;;4995430;28;20724;-47
2023/03/08 07:53:38;;;;;;;1.48;1.15;;;5.20;99.90;;;;;;4991824;28;20230;-47
2023/03/08 07:56:08;;;;;;;1.70;1.20;;;5.20;99.90;;;;;;5008854;28;20207;-49
2023/03/08 07:58:38;;;;;;;2.10;1.50;;;5.20;99.90;;;;;;4983649;28;20214;-47
2023/03/08 08:01:09;;;;;;;1.17;1.05;;;5.20;99.90;;;;;;4992088;28;20259;-48
2023/03/08 08:03:40;;;;;;;1.48;1.10;;;5.20;99.90;;;;;;4992993;28;20241;-48
2023/03/08 08:06:09;;;;;;;2.35;2.15;;;5.20;99.90;;;;;;5012374;28;20195;-49
2023/03/08 08:08:38;;;;;;;6.72;4.63;;;5.20;99.90;;;;;;5004569;28;20694;-49
2023/03/08 08:11:14;;;;;;;6.57;4.30;;;5.20;99.90;;;;;;4992877;28;20288;-50
2023/03/08 08:13:45;;;;;;;4.95;3.88;;;5.20;99.90;;;;;;5003049;28;20221;-47
2023/03/08 08:16:15;;;;;;;4.18;3.63;;;5.20;99.90;;;;;;4991492;28;20201;-48
2023/03/08 08:18:45;;;;;;;4.45;3.90;;;5.20;99.90;;;;;;5006815;28;20304;-48
2023/03/08 08:21:15;;;;;;;5.00;4.07;;;5.10;99.90;;;;;;4992570;28;20216;-49
2023/03/08 08:23:44;;;;;;;4.85;3.60;;;5.10;99.90;;;;;;5005760;28;20716;-51
2023/03/08 08:26:15;;;;;;;5.45;4.80;;;5.00;99.90;;;;;;4990902;28;20196;-49
2023/03/08 08:28:46;;;;;;;5.80;3.70;;;5.00;99.90;;;;;;4995377;28;20228;-48
2023/03/08 08:31:17;;;;;;;4.80;3.88;;;5.00;99.90;;;;;;4989146;28;20244;-49
2023/03/08 08:33:47;;;;;;;4.72;3.55;;;5.00;99.90;;;;;;4988070;28;20225;-48
2023/03/08 08:36:18;;;;;;;5.15;4.03;;;5.10;99.90;;;;;;4992847;28;20196;-47
2023/03/08 08:38:47;;;;;;;4.25;3.20;;;5.10;99.90;;;;;;5007476;28;20282;-46
2023/03/08 08:41:17;;;;;;;4.18;3.10;;;5.10;99.90;;;;;;4993419;28;20244;-47
2023/03/08 08:43:47;;;;;;;4.32;3.47;;;5.10;99.90;;;;;;4993324;28;20232;-48
2023/03/08 08:46:17;;;;;;;3.92;3.50;;;5.10;99.90;;;;;;5006289;28;20227;-49
2023/03/08 08:48:47;;;;;;;4.30;3.40;;;5.10;99.90;;;;;;4992896;28;20700;-49
2023/03/08 08:51:16;;;;;;;4.13;2.95;;;5.10;99.90;;;;;;4992488;28;21396;-49
2023/03/08 08:53:44;;;;;;;4.55;3.20;;;5.10;99.90;;;;;;4992036;28;20236;-48
2023/03/08 08:56:15;;;;;;;4.88;3.22;;;5.10;99.90;;;;;;4996469;28;20196;-47
2023/03/08 08:58:57;;;;;;;3.72;2.90;;;5.10;99.90;;;;;;4999720;28;20624;-50
2023/03/08 09:01:28;;;;;;;4.60;3.65;;;5.20;99.90;;;;;;5008400;28;20275;-48
2023/03/08 09:03:58;;;;;;;3.42;3.10;;;5.10;99.90;;;;;;4993086;28;20566;-49
2023/03/08 09:06:28;;;;;;;5.20;3.75;;;5.10;99.90;;;;;;4995568;28;20202;-48
2023/03/08 09:08:58;;;;;;;4.47;3.20;;;5.10;99.90;;;;;;4990157;28;20205;-47
2023/03/08 09:11:28;;;;;;;5.60;3.67;;;5.10;99.90;;;;;;4991612;28;20212;-48
2023/03/08 09:14:01;;;;;;;5.55;3.97;;;5.10;99.90;;;;;;5004621;28;20610;-48
2023/03/08 09:16:31;;;;;;;4.90;3.90;;;5.10;99.90;;;;;;4994710;28;20601;-50
2023/03/08 09:19:04;;;;;;;3.78;3.10;;;5.10;99.90;;;;;;4993309;28;20573;-52
2023/03/08 09:21:33;;;;;;;3.80;3.05;;;5.20;99.90;;;;;;5009497;28;20652;-49
2023/03/08 09:24:04;;;;;;;3.65;3.30;;;5.20;99.90;;;;;;4992113;28;20211;-49
2023/03/08 09:26:33;;;;;;;4.85;3.53;;;5.10;99.90;;;;;;5008190;28;20352;-47
2023/03/08 09:29:06;;;;;;;3.90;3.22;;;5.10;99.90;;;;;;5003839;28;20201;-48
2023/03/08 09:31:38;;;;;;;3.30;3.00;;;5.20;99.90;;;;;;4991684;28;20227;-48
2023/03/08 09:34:10;;;;;;;4.53;3.72;;;5.20;99.90;;;;;;5005623;28;20204;-48
2023/03/08 09:36:39;;;;;;;3.47;2.88;;;5.20;99.90;;;;;;5006943;28;20223;-48
2023/03/08 09:39:08;;;;;;;3.10;2.80;;;5.10;99.90;;;;;;4990454;28;20252;-48
2023/03/08 09:41:50;;;;;;;5.13;3.45;;;5.10;99.90;;;;;;5005266;28;20232;-48
2023/03/08 09:44:46;;;;;;;3.15;2.35;;;5.10;99.90;;;;;;4989518;28;20265;-46
2023/03/08 09:47:26;;;;;;;3.65;3.20;;;5.20;99.90;;;;;;4990262;28;20691;-43
2023/03/08 09:50:07;;;;;;;4.40;4.00;;;5.20;99.90;;;;;;5000803;28;20939;-49
2023/03/08 09:52:40;;;;;;;7.10;4.40;;;5.20;99.90;;;;;;4994166;28;20751;-47
2023/03/08 09:55:19;;;;;;;4.55;4.03;;;5.20;99.90;;;;;;5004435;28;20256;-48
2023/03/08 09:57:52;;;;;;;4.65;4.07;;;5.20;99.90;;;;;;5004958;28;20216;-49
2023/03/08 10:00:23;;;;;;;6.97;4.25;;;5.20;99.90;;;;;;4995373;28;20224;-48
2023/03/08 10:03:04;;;;;;;4.80;3.75;;;5.20;99.90;;;;;;4990243;28;20271;-47
2023/03/08 10:05:38;;;;;;;5.57;4.53;;;5.20;99.90;;;;;;4988781;28;20531;-50
2023/03/08 10:08:13;;;;;;;4.15;3.72;;;5.20;99.90;;;;;;4982353;28;20225;-50
2023/03/08 10:10:49;;;;;;;6.57;5.70;;;5.20;99.90;;;;;;4986983;28;20252;-48
2023/03/08 10:13:30;;;;;;;4.97;3.80;;;5.10;99.90;;;;;;5011301;28;20224;-49
2023/03/08 10:16:11;;;;;;;4.35;3.90;;;5.20;99.90;;;;;;4985720;28;20199;-48
2023/03/08 10:18:45;;;;;;;5.63;3.90;;;5.20;99.90;;;;;;5001621;28;20281;-48
2023/03/08 10:21:19;;;;;;;6.13;4.10;;;5.20;99.90;;;;;;4992425;28;20207;-50
2023/03/08 10:23:52;;;;;;;3.92;3.35;;;5.20;99.90;;;;;;4990986;28;20708;-48
2023/03/08 10:26:21;;;;;;;4.78;3.30;;;5.20;99.90;;;;;;4987892;28;20789;-48
2023/03/08 10:28:49;;;;;;;4.75;3.45;;;5.20;99.90;;;;;;4990403;28;20218;-49
2023/03/08 10:31:23;;;;;;;5.35;3.60;;;5.20;99.90;;;;;;4988031;28;20633;-48
2023/03/08 10:33:57;;;;;;;3.10;2.72;;;5.20;99.90;;;;;;4991696;28;20204;-47
2023/03/08 10:36:27;;;;;;;3.47;2.80;;;5.20;99.90;;;;;;4990994;28;20621;-48
2023/03/08 10:38:58;;;;;;;4.63;3.85;;;5.20;99.90;;;;;;4990810;28;20819;-49
2023/03/08 10:41:31;;;;;;;3.03;2.83;;;5.20;99.90;;;;;;4986246;28;20656;-48
2023/03/08 10:44:00;;;;;;;3.40;3.10;;;5.20;99.90;;;;;;4989253;28;20208;-50
2023/03/08 10:46:31;;;;;;;4.00;3.38;;;5.10;99.90;;;;;;5006192;28;20653;-47
2023/03/08 10:49:09;;;;;;;3.40;2.90;;;5.20;99.90;;;;;;4993395;28;20306;-48
2023/03/08 10:51:39;;;;;;;4.25;2.95;;;5.20;99.90;;;;;;4990864;28;20204;-49
2023/03/08 10:54:15;;;;;;;4.47;3.00;;;5.20;99.90;;;;;;4994837;28;20208;-50
2023/03/08 10:56:50;;;;;;;4.05;3.13;;;5.20;99.90;;;;;;4987952;28;20223;-49
2023/03/08 10:59:28;;;;;;;3.58;2.80;;;5.20;99.90;;;;;;5000827;28;20212;-49
2023/03/08 11:02:00;;;;;;;3.65;2.85;;;5.20;99.90;;;;;;5003332;28;20611;-47
2023/03/08 11:04:30;;;;;;;5.57;2.85;;;5.20;99.90;;;;;;5005031;28;20246;-49
2023/03/08 11:07:11;;;;;;;4.00;3.10;;;5.20;99.90;;;;;;5006516;28;20224;-48
2023/03/08 11:09:40;;;;;;;3.35;2.80;;;5.20;99.90;;;;;;5001450;28;20200;-48
2023/03/08 11:12:23;;;;;;;3.65;3.25;;;5.20;99.90;;;;;;5011070;28;20273;-48
2023/03/08 11:14:52;;;;;;;4.68;3.97;;;5.20;99.90;;;;;;4984427;28;20224;-48
2023/03/08 11:17:28;;;;;;;3.20;2.90;;;5.20;99.90;;;;;;5006093;28;20388;-47
2023/03/08 11:20:09;;;;;;;3.92;2.92;;;5.20;99.90;;;;;;4991834;28;20204;-50
2023/03/08 11:23:00;;;;;;;3.63;3.17;;;5.20;99.90;;;;;;4994284;28;20259;-47
2023/03/08 11:25:41;;;;;;;3.38;2.63;;;5.20;99.90;;;;;;5007031;28;20738;-47
2023/03/08 11:28:26;;;;;;;4.03;3.28;;;5.20;99.90;;;;;;5007153;28;20228;-49
2023/03/08 11:31:05;;;;;;;4.88;3.65;;;5.20;99.90;;;;;;5004660;28;20264;-47
2023/03/08 11:33:53;;;;;;;5.07;3.00;;;5.20;99.90;;;;;;4994542;28;20228;-56
2023/03/08 11:36:28;;;;;;;3.55;3.08;;;5.20;99.90;;;;;;5022493;28;20200;-48
2023/03/08 11:39:04;;;;;;;3.88;3.33;;;5.20;99.90;;;;;;4992395;28;20213;-48
2023/03/08 11:41:41;;;;;;;3.78;3.40;;;5.20;99.90;;;;;;4993258;28;20728;-48
2023/03/08 11:44:27;;;;;;;4.47;2.97;;;5.20;99.90;;;;;;4992020;28;20310;-48
2023/03/08 11:47:09;;;;;;;4.35;2.78;;;5.20;99.90;;;;;;5003915;28;20228;-49
2023/03/08 11:49:50;;;;;;;2.72;2.35;;;5.20;99.90;;;;;;4993130;28;20206;-49
2023/03/08 11:52:31;;;;;;;3.72;3.15;;;5.20;99.90;;;;;;5011527;28;20277;-48
2023/03/08 11:55:19;;;;;;;5.45;3.70;;;5.20;99.90;;;;;;4994615;28;20242;-48
2023/03/08 11:57:56;;;;;;;3.22;2.75;;;5.20;99.90;;;;;;5009466;28;20633;-47
2023/03/08 12:00:30;;;;;;;3.25;2.50;;;5.20;99.90;;;;;;5004157;28;20196;-49
2023/03/08 12:03:06;;;;;;;4.45;3.10;;;5.20;99.90;;;;;;5005301;28;20281;-48
2023/03/08 12:05:38;;;;;;;3.75;2.75;;;5.20;99.90;;;;;;5010062;28;20328;-48
2023/03/08 12:08:15;;;;;;;3.70;2.75;;;5.20;99.90;;;;;;5006735;28;20229;-48
2023/03/08 12:10:50;;;;;;;3.40;2.65;;;5.20;99.90;;;;;;4989259;28;20334;-49
2023/03/08 12:13:24;;;;;;;4.90;3.55;;;5.20;99.90;;;;;;5003162;28;20285;-50
2023/03/08 12:15:57;;;;;;;4.18;3.10;;;5.20;99.90;;;;;;5011218;28;20201;-50
2023/03/08 12:18:34;;;;;;;3.55;2.90;;;5.20;99.90;;;;;;4992694;28;20229;-47
2023/03/08 12:21:15;;;;;;;5.93;4.43;;;5.20;99.90;;;;;;4992095;28;20752;-49
2023/03/08 12:23:50;;;;;;;4.53;3.50;;;5.20;99.90;;;;;;4988486;28;20227;-48
2023/03/08 12:26:30;;;;;;;4.57;3.83;;;5.20;99.90;;;;;;4990514;28;20199;-48
2023/03/08 12:29:03;;;;;;;3.97;3.55;;;5.20;99.90;;;;;;4996429;28;20734;-51
2023/03/08 12:31:37;;;;;;;3.25;2.90;;;5.20;99.90;;;;;;4994938;28;20216;-47
2023/03/08 12:34:13;;;;;;;3.33;2.63;;;5.20;99.90;;;;;;4991899;28;20316;-48
2023/03/08 12:36:44;;;;;;;3.17;2.88;;;5.20;99.90;;;;;;5001412;28;20223;-47
2023/03/08 12:39:29;;;;;;;3.03;2.45;;;5.20;99.90;;;;;;5008504;28;20199;-48
2023/03/08 12:42:15;;;;;;;2.47;2.17;;;5.20;99.90;;;;;;5004488;28;20259;-47
2023/03/08 12:44:44;;;;;;;3.17;2.47;;;5.20;99.90;;;;;;4994405;28;20564;-48
2023/03/08 12:47:22;;;;;;;3.08;2.40;;;5.20;99.90;;;;;;5006502;28;20262;-47
2023/03/08 12:49:55;;;;;;;2.75;2.53;;;5.20;99.90;;;;;;4984589;28;20282;-49
2023/03/08 12:52:30;;;;;;;3.42;2.75;;;5.20;99.90;;;;;;5006902;28;20222;-49
2023/03/08 12:55:01;;;;;;;3.80;3.13;;;5.20;99.90;;;;;;4989042;28;20630;-48
2023/03/08 12:57:35;;;;;;;3.03;2.03;;;5.20;99.90;;;;;;4985433;28;20687;-48
2023/03/08 13:00:09;;;;;;;3.00;2.40;;;5.20;99.90;;;;;;4987585;28;21035;-48
2023/03/08 13:02:37;;;;;;;4.65;2.50;;;5.20;99.90;;;;;;5006580;28;20219;-47
2023/03/08 13:05:28;;;;;;;4.32;3.17;;;5.20;99.90;;;;;;4990881;28;20197;-49
2023/03/08 13:08:17;;;;;;;3.45;2.47;;;5.20;99.90;;;;;;4984819;28;20217;-48
2023/03/08 13:11:08;;;;;;;2.53;2.00;;;5.20;99.90;;;;;;5003391;28;20192;-49
2023/03/08 13:13:47;;;;;;;2.97;2.15;;;5.20;99.90;;;;;;5006900;28;20224;-50
2023/03/08 13:16:32;;;;;;;3.15;2.20;;;5.20;99.90;;;;;;4990845;28;20242;-48
2023/03/08 13:19:17;;;;;;;2.42;2.22;;;5.20;99.90;;;;;;5005726;28;20325;-50
2023/03/08 13:21:53;;;;;;;2.67;2.30;;;5.20;99.90;;;;;;4982665;28;20213;-48
2023/03/08 13:24:33;;;;;;;2.10;1.90;;;5.20;99.90;;;;;;4989251;28;20280;-49